sensor_id;sensor_type;location;lat;lon;timestamp;pressure;altitude;pressure_sealevel;temperature;humidity
71772;BME280;59606;52.138;5.424;2024-01-15T00:01:59;100407.94;;;1.08;100.00
71772;BME280;59606;52.138;5.424;2024-01-15T00:04:25;100409.75;;;1.05;100.00
71772;BME280;59606;52.138;5.424;2024-01-15T00:06:52;100411.50;;;1.03;100.00
71772;BME280;59606;52.138;5.424;2024-01-15T00:09:18;100406.41;;;1.00;100.00
71772;BME280;59606;52.138;5.424;2024-01-15T00:11:45;100399.63;;;0.97;100.00
71772;BME280;59606;52.138;5.424;2024-01-15T00:14:12;100394.59;;;0.94;100.00
71772;BME280;59606;52.138;5.424;2024-01-15T00:16:41;100390.38;;;0.91;100.00
71772;BME280;59606;52.138;5.424;2024-01-15T00:19:08;100393.03;;;0.87;100.00
71772;BME280;59606;52.138;5.424;2024-01-15T00:21:34;100391.41;;;0.84;100.00
71772;BME280;59606;52.138;5.424;2024-01-15T00:24:01;100382.88;;;0.82;100.00
71772;BME280;59606;52.138;5.424;2024-01-15T00:26:28;100384.59;;;0.82;100.00
71772;BME280;59606;52.138;5.424;2024-01-15T00:28:54;100379.53;;;0.79;100.00
71772;BME280;59606;52.138;5.424;2024-01-15T00:31:21;100379.59;;;0.77;100.00
71772;BME280;59606;52.138;5.424;2024-01-15T00:33:47;100373.66;;;0.74;100.00
71772;BME280;59606;52.138;5.424;2024-01-15T00:36:14;100377.09;;;0.73;100.00
71772;BME280;59606;52.138;5.424;2024-01-15T00:38:44;100374.59;;;0.71;100.00
71772;BME280;59606;52.138;5.424;2024-01-15T00:41:10;100372.03;;;0.69;100.00
71772;BME280;59606;52.138;5.424;2024-01-15T00:43:37;100361.84;;;0.66;100.00
71772;BME280;59606;52.138;5.424;2024-01-15T00:46:03;100363.56;;;0.67;100.00
71772;BME280;59606;52.138;5.424;2024-01-15T00:48:30;100360.22;;;0.64;100.00
71772;BME280;59606;52.138;5.424;2024-01-15T00:50:57;100353.44;;;0.61;100.00
71772;BME280;59606;52.138;5.424;2024-01-15T00:53:23;100353.50;;;0.58;100.00
71772;BME280;59606;52.138;5.424;2024-01-15T00:55:50;100349.25;;;0.57;100.00
71772;BME280;59606;52.138;5.424;2024-01-15T00:58:16;100349.31;;;0.54;100.00
71772;BME280;59606;52.138;5.424;2024-01-15T01:00:43;100354.47;;;0.53;100.00
71772;BME280;59606;52.138;5.424;2024-01-15T01:03:10;100348.56;;;0.51;100.00
71772;BME280;59606;52.138;5.424;2024-01-15T01:05:37;100356.25;;;0.51;100.00
71772;BME280;59606;52.138;5.424;2024-01-15T01:08:04;100346.84;;;0.50;100.00
71772;BME280;59606;52.138;5.424;2024-01-15T01:10:30;100337.47;;;0.49;100.00
71772;BME280;59606;52.138;5.424;2024-01-15T01:12:57;100342.66;;;0.47;100.00
71772;BME280;59606;52.138;5.424;2024-01-15T01:15:23;100339.28;;;0.45;100.00
71772;BME280;59606;52.138;5.424;2024-01-15T01:17:51;100328.97;;;0.46;100.00
71772;BME280;59606;52.138;5.424;2024-01-15T01:20:17;100328.19;;;0.44;100.00
71772;BME280;59606;52.138;5.424;2024-01-15T01:22:45;100323.91;;;0.45;100.00
71772;BME280;59606;52.138;5.424;2024-01-15T01:25:11;100335.81;;;0.47;100.00
71772;BME280;59606;52.138;5.424;2024-01-15T01:27:38;100331.53;;;0.48;100.00
71772;BME280;59606;52.138;5.424;2024-01-15T01:30:05;100333.25;;;0.47;100.00
71772;BME280;59606;52.138;5.424;2024-01-15T01:32:32;100338.44;;;0.44;100.00
71772;BME280;59606;52.138;5.424;2024-01-15T01:34:58;100341.78;;;0.46;100.00
71772;BME280;59606;52.138;5.424;2024-01-15T01:37:25;100346.94;;;0.45;100.00
71772;BME280;59606;52.138;5.424;2024-01-15T01:39:52;100340.16;;;0.44;100.00
71772;BME280;59606;52.138;5.424;2024-01-15T01:42:18;100346.13;;;0.44;100.00
71772;BME280;59606;52.138;5.424;2024-01-15T01:44:45;100341.84;;;0.43;100.00
71772;BME280;59606;52.138;5.424;2024-01-15T01:47:12;100341.00;;;0.44;100.00
71772;BME280;59606;52.138;5.424;2024-01-15T01:49:39;100334.16;;;0.43;100.00
71772;BME280;59606;52.138;5.424;2024-01-15T01:52:07;100335.03;;;0.42;100.00
71772;BME280;59606;52.138;5.424;2024-01-15T01:54:34;100325.69;;;0.40;100.00
71772;BME280;59606;52.138;5.424;2024-01-15T01:57:02;100330.81;;;0.40;100.00
71772;BME280;59606;52.138;5.424;2024-01-15T01:59:30;100333.38;;;0.40;100.00
71772;BME280;59606;52.138;5.424;2024-01-15T02:02:00;100335.09;;;0.41;100.00
71772;BME280;59606;52.138;5.424;2024-01-15T02:04:29;100340.94;;;0.47;100.00
71772;BME280;59606;52.138;5.424;2024-01-15T02:06:56;100337.31;;;0.56;100.00
71772;BME280;59606;52.138;5.424;2024-01-15T02:09:23;100339.63;;;0.67;100.00
71772;BME280;59606;52.138;5.424;2024-01-15T02:11:49;100353.09;;;0.77;100.00
71772;BME280;59606;52.138;5.424;2024-01-15T02:14:16;100372.56;;;0.85;100.00
71772;BME280;59606;52.138;5.424;2024-01-15T02:16:43;100363.91;;;0.91;100.00
71772;BME280;59606;52.138;5.424;2024-01-15T02:19:16;100361.25;;;0.94;100.00
71772;BME280;59606;52.138;5.424;2024-01-15T02:21:44;100351.00;;;0.94;100.00
71772;BME280;59606;52.138;5.424;2024-01-15T02:24:11;100354.44;;;0.93;100.00
71772;BME280;59606;52.138;5.424;2024-01-15T02:26:38;100339.94;;;0.90;100.00
71772;BME280;59606;52.138;5.424;2024-01-15T02:29:07;100345.13;;;0.89;100.00
71772;BME280;59606;52.138;5.424;2024-01-15T02:31:36;100346.84;;;0.88;100.00
71772;BME280;59606;52.138;5.424;2024-01-15T02:34:04;100336.66;;;0.85;100.00
71772;BME280;59606;52.138;5.424;2024-01-15T02:36:30;100337.56;;;0.83;100.00
71772;BME280;59606;52.138;5.424;2024-01-15T02:38:57;100340.13;;;0.83;100.00
71772;BME280;59606;52.138;5.424;2024-01-15T02:41:24;100337.63;;;0.81;100.00
71772;BME280;59606;52.138;5.424;2024-01-15T02:43:50;100337.63;;;0.81;100.00
71772;BME280;59606;52.138;5.424;2024-01-15T02:46:17;100329.09;;;0.81;100.00
71772;BME280;59606;52.138;5.424;2024-01-15T02:48:43;100329.03;;;0.82;100.00
71772;BME280;59606;52.138;5.424;2024-01-15T02:51:10;100325.59;;;0.83;100.00
71772;BME280;59606;52.138;5.424;2024-01-15T02:53:38;100328.16;;;0.83;100.00
71772;BME280;59606;52.138;5.424;2024-01-15T02:56:07;100324.72;;;0.84;100.00
71772;BME280;59606;52.138;5.424;2024-01-15T02:58:33;100328.91;;;0.87;100.00
71772;BME280;59606;52.138;5.424;2024-01-15T03:01:00;100328.97;;;0.85;100.00
71772;BME280;59606;52.138;5.424;2024-01-15T03:03:27;100322.16;;;0.84;100.00
71772;BME280;59606;52.138;5.424;2024-01-15T03:05:54;100323.88;;;0.84;100.00
71772;BME280;59606;52.138;5.424;2024-01-15T03:08:21;100320.44;;;0.85;100.00
71772;BME280;59606;52.138;5.424;2024-01-15T03:10:49;100322.13;;;0.86;100.00
71772;BME280;59606;52.138;5.424;2024-01-15T03:13:15;100314.41;;;0.87;100.00
71772;BME280;59606;52.138;5.424;2024-01-15T03:15:42;100313.53;;;0.87;100.00
71772;BME280;59606;52.138;5.424;2024-01-15T03:18:09;100313.53;;;0.87;100.00
71772;BME280;59606;52.138;5.424;2024-01-15T03:20:36;100317.81;;;0.86;100.00
71772;BME280;59606;52.138;5.424;2024-01-15T03:23:02;100308.53;;;0.82;100.00
71772;BME280;59606;52.138;5.424;2024-01-15T03:25:29;100319.69;;;0.80;100.00
71772;BME280;59606;52.138;5.424;2024-01-15T03:27:55;100322.25;;;0.80;100.00
71772;BME280;59606;52.138;5.424;2024-01-15T03:30:22;100323.19;;;0.77;100.00
71772;BME280;59606;52.138;5.424;2024-01-15T03:32:49;100336.88;;;0.76;100.00
71772;BME280;59606;52.138;5.424;2024-01-15T03:35:16;100327.44;;;0.77;100.00
71772;BME280;59606;52.138;5.424;2024-01-15T03:37:43;100346.25;;;0.77;100.00
71772;BME280;59606;52.138;5.424;2024-01-15T03:40:10;100343.59;;;0.80;100.00
71772;BME280;59606;52.138;5.424;2024-01-15T03:42:36;100346.09;;;0.83;100.00
71772;BME280;59606;52.138;5.424;2024-01-15T03:45:03;100350.31;;;0.86;100.00
71772;BME280;59606;52.138;5.424;2024-01-15T03:47:30;100343.44;;;0.88;100.00
71772;BME280;59606;52.138;5.424;2024-01-15T03:49:57;100333.97;;;0.90;100.00
71772;BME280;59606;52.138;5.424;2024-01-15T03:52:23;100316.03;;;0.90;100.00
71772;BME280;59606;52.138;5.424;2024-01-15T03:54:49;100307.56;;;0.88;100.00
71772;BME280;59606;52.138;5.424;2024-01-15T03:57:16;100302.41;;;0.88;100.00
71772;BME280;59606;52.138;5.424;2024-01-15T03:59:42;100300.78;;;0.84;100.00
71772;BME280;59606;52.138;5.424;2024-01-15T04:02:10;100295.00;;;0.77;100.00
71772;BME280;59606;52.138;5.424;2024-01-15T04:04:36;100290.84;;;0.70;100.00
71772;BME280;59606;52.138;5.424;2024-01-15T04:07:06;100288.47;;;0.64;100.00
71772;BME280;59606;52.138;5.424;2024-01-15T04:09:33;100279.13;;;0.60;100.00
71772;BME280;59606;52.138;5.424;2024-01-15T04:12:00;100283.47;;;0.56;100.00
71772;BME280;59606;52.138;5.424;2024-01-15T04:14:26;100283.59;;;0.52;100.00
71772;BME280;59606;52.138;5.424;2024-01-15T04:16:53;100277.66;;;0.50;100.00
71772;BME280;59606;52.138;5.424;2024-01-15T04:19:20;100282.00;;;0.47;100.00
71772;BME280;59606;52.138;5.424;2024-01-15T04:21:46;100277.78;;;0.43;100.00
71772;BME280;59606;52.138;5.424;2024-01-15T04:24:13;100271.88;;;0.40;100.00
71772;BME280;59606;52.138;5.424;2024-01-15T04:26:39;100271.13;;;0.36;100.00
71772;BME280;59606;52.138;5.424;2024-01-15T04:29:06;100270.28;;;0.36;100.00
71772;BME280;59606;52.138;5.424;2024-01-15T04:31:32;100271.19;;;0.33;100.00
71772;BME280;59606;52.138;5.424;2024-01-15T04:33:59;100268.63;;;0.33;100.00
71772;BME280;59606;52.138;5.424;2024-01-15T04:36:26;100262.72;;;0.31;100.00
71772;BME280;59606;52.138;5.424;2024-01-15T04:38:52;100266.13;;;0.30;100.00
71772;BME280;59606;52.138;5.424;2024-01-15T04:41:19;100262.78;;;0.28;100.00
71772;BME280;59606;52.138;5.424;2024-01-15T04:43:46;100261.88;;;0.31;100.00
71772;BME280;59606;52.138;5.424;2024-01-15T04:46:12;100253.31;;;0.30;100.00
71772;BME280;59606;52.138;5.424;2024-01-15T04:48:39;100243.94;;;0.31;100.00
71772;BME280;59606;52.138;5.424;2024-01-15T04:51:08;100249.91;;;0.31;100.00
71772;BME280;59606;52.138;5.424;2024-01-15T04:53:35;100239.66;;;0.31;100.00
71772;BME280;59606;52.138;5.424;2024-01-15T04:56:02;100250.66;;;0.35;100.00
71772;BME280;59606;52.138;5.424;2024-01-15T04:58:28;100254.00;;;0.38;100.00
71772;BME280;59606;52.138;5.424;2024-01-15T05:00:55;100259.91;;;0.42;100.00
71772;BME280;59606;52.138;5.424;2024-01-15T05:03:22;100256.44;;;0.44;100.00
71772;BME280;59606;52.138;5.424;2024-01-15T05:05:49;100259.75;;;0.48;100.00
71772;BME280;59606;52.138;5.424;2024-01-15T05:08:15;100239.28;;;0.46;100.00
71772;BME280;59606;52.138;5.424;2024-01-15T05:10:42;100254.59;;;0.50;100.00
71772;BME280;59606;52.138;5.424;2024-01-15T05:13:09;100251.25;;;0.47;100.00
71772;BME280;59606;52.138;5.424;2024-01-15T05:15:35;100246.13;;;0.47;100.00
71772;BME280;59606;52.138;5.424;2024-01-15T05:18:02;100235.81;;;0.49;100.00
71772;BME280;59606;52.138;5.424;2024-01-15T05:20:29;100234.09;;;0.50;100.00
71772;BME280;59606;52.138;5.424;2024-01-15T05:22:55;100238.34;;;0.51;100.00
71772;BME280;59606;52.138;5.424;2024-01-15T05:25:22;100235.78;;;0.51;100.00
71772;BME280;59606;52.138;5.424;2024-01-15T05:27:49;100243.47;;;0.51;100.00
71772;BME280;59606;52.138;5.424;2024-01-15T05:30:15;100241.72;;;0.53;100.00
71772;BME280;59606;52.138;5.424;2024-01-15T05:32:43;100239.16;;;0.53;100.00
71772;BME280;59606;52.138;5.424;2024-01-15T05:35:10;100239.97;;;0.53;100.00
71772;BME280;59606;52.138;5.424;2024-01-15T05:37:36;100242.56;;;0.53;100.00
71772;BME280;59606;52.138;5.424;2024-01-15T05:40:03;100248.50;;;0.54;100.00
71772;BME280;59606;52.138;5.424;2024-01-15T05:42:31;100245.88;;;0.57;100.00
71772;BME280;59606;52.138;5.424;2024-01-15T05:44:58;100253.56;;;0.58;100.00
71772;BME280;59606;52.138;5.424;2024-01-15T05:47:26;100250.09;;;0.61;100.00
71772;BME280;59606;52.138;5.424;2024-01-15T05:49:52;100245.75;;;0.63;100.00
71772;BME280;59606;52.138;5.424;2024-01-15T05:52:19;100246.50;;;0.66;100.00
71772;BME280;59606;52.138;5.424;2024-01-15T05:54:47;100251.63;;;0.68;100.00
71772;BME280;59606;52.138;5.424;2024-01-15T05:57:14;100252.41;;;0.70;100.00
71772;BME280;59606;52.138;5.424;2024-01-15T05:59:41;100260.97;;;0.69;100.00
71772;BME280;59606;52.138;5.424;2024-01-15T06:02:07;100259.22;;;0.71;100.00
71772;BME280;59606;52.138;5.424;2024-01-15T06:04:34;100259.19;;;0.73;100.00
71772;BME280;59606;52.138;5.424;2024-01-15T06:07:00;100264.31;;;0.73;100.00
71772;BME280;59606;52.138;5.424;2024-01-15T06:09:27;100260.03;;;0.73;100.00
71772;BME280;59606;52.138;5.424;2024-01-15T06:11:55;100276.28;;;0.72;100.00
71772;BME280;59606;52.138;5.424;2024-01-15T06:14:21;100254.13;;;0.69;100.00
71772;BME280;59606;52.138;5.424;2024-01-15T06:16:48;100246.50;;;0.66;100.00
71772;BME280;59606;52.138;5.424;2024-01-15T06:19:15;100248.31;;;0.63;100.00
71772;BME280;59606;52.138;5.424;2024-01-15T06:21:42;100241.56;;;0.59;100.00
71772;BME280;59606;52.138;5.424;2024-01-15T06:24:08;100239.06;;;0.57;100.00
71772;BME280;59606;52.138;5.424;2024-01-15T06:26:36;100235.63;;;0.57;100.00
71772;BME280;59606;52.138;5.424;2024-01-15T06:29:03;100243.38;;;0.55;100.00
71772;BME280;59606;52.138;5.424;2024-01-15T06:31:29;100232.28;;;0.55;100.00
71772;BME280;59606;52.138;5.424;2024-01-15T06:33:56;100237.41;;;0.53;100.00
71772;BME280;59606;52.138;5.424;2024-01-15T06:36:23;100244.28;;;0.53;100.00
71772;BME280;59606;52.138;5.424;2024-01-15T06:38:49;100241.75;;;0.51;100.00
71772;BME280;59606;52.138;5.424;2024-01-15T06:41:16;100234.94;;;0.50;100.00
71772;BME280;59606;52.138;5.424;2024-01-15T06:43:42;100226.44;;;0.48;100.00
71772;BME280;59606;52.138;5.424;2024-01-15T06:46:09;100234.09;;;0.50;100.00
71772;BME280;59606;52.138;5.424;2024-01-15T06:48:36;100243.50;;;0.49;100.00
71772;BME280;59606;52.138;5.424;2024-01-15T06:51:02;100231.66;;;0.43;100.00
71772;BME280;59606;52.138;5.424;2024-01-15T06:53:29;100227.50;;;0.39;100.00
71772;BME280;59606;52.138;5.424;2024-01-15T06:55:56;100221.59;;;0.37;100.00
71772;BME280;59606;52.138;5.424;2024-01-15T06:58:22;100218.19;;;0.35;100.00
71772;BME280;59606;52.138;5.424;2024-01-15T07:00:49;100213.91;;;0.36;100.00
71772;BME280;59606;52.138;5.424;2024-01-15T07:03:15;100219.94;;;0.35;100.00
71772;BME280;59606;52.138;5.424;2024-01-15T07:05:42;100217.38;;;0.35;100.00
71772;BME280;59606;52.138;5.424;2024-01-15T07:08:09;100216.47;;;0.36;100.00
71772;BME280;59606;52.138;5.424;2024-01-15T07:10:35;100218.97;;;0.39;100.00
71772;BME280;59606;52.138;5.424;2024-01-15T07:13:03;100221.50;;;0.40;100.00
71772;BME280;59606;52.138;5.424;2024-01-15T07:15:31;100226.59;;;0.42;100.00
71772;BME280;59606;52.138;5.424;2024-01-15T07:17:57;100246.19;;;0.43;100.00
71772;BME280;59606;52.138;5.424;2024-01-15T07:20:24;100268.34;;;0.45;100.00
71772;BME280;59606;52.138;5.424;2024-01-15T07:22:51;100268.34;;;0.47;100.00
71772;BME280;59606;52.138;5.424;2024-01-15T07:25:17;100269.19;;;0.46;100.00
71772;BME280;59606;52.138;5.424;2024-01-15T07:27:44;100256.38;;;0.47;100.00
71772;BME280;59606;52.138;5.424;2024-01-15T07:30:11;100235.03;;;0.47;100.00
71772;BME280;59606;52.138;5.424;2024-01-15T07:32:38;100241.06;;;0.44;100.00
71772;BME280;59606;52.138;5.424;2024-01-15T07:35:05;100241.13;;;0.41;100.00
71772;BME280;59606;52.138;5.424;2024-01-15T07:37:32;100238.59;;;0.40;100.00
71772;BME280;59606;52.138;5.424;2024-01-15T07:39:59;100231.75;;;0.40;100.00
71772;BME280;59606;52.138;5.424;2024-01-15T07:42:27;100236.00;;;0.41;100.00
71772;BME280;59606;52.138;5.424;2024-01-15T07:44:53;100235.13;;;0.42;100.00
71772;BME280;59606;52.138;5.424;2024-01-15T07:47:20;100241.06;;;0.44;100.00
71772;BME280;59606;52.138;5.424;2024-01-15T07:49:46;100251.31;;;0.44;100.00
71772;BME280;59606;52.138;5.424;2024-01-15T07:52:13;100270.09;;;0.45;100.00
71772;BME280;59606;52.138;5.424;2024-01-15T07:54:40;100259.78;;;0.46;100.00
71772;BME280;59606;52.138;5.424;2024-01-15T07:57:07;100253.81;;;0.47;100.00
71772;BME280;59606;52.138;5.424;2024-01-15T07:59:35;100251.31;;;0.44;100.00
71772;BME280;59606;52.138;5.424;2024-01-15T08:02:02;100247.91;;;0.44;100.00
71772;BME280;59606;52.138;5.424;2024-01-15T08:04:29;100253.88;;;0.44;100.00
71772;BME280;59606;52.138;5.424;2024-01-15T08:06:56;100258.19;;;0.42;100.00
71772;BME280;59606;52.138;5.424;2024-01-15T08:09:23;100247.13;;;0.40;100.00
71772;BME280;59606;52.138;5.424;2024-01-15T08:11:50;100246.25;;;0.40;100.00
71772;BME280;59606;52.138;5.424;2024-01-15T08:14:17;100229.22;;;0.39;100.00
71772;BME280;59606;52.138;5.424;2024-01-15T08:16:44;100229.28;;;0.37;100.00
71772;BME280;59606;52.138;5.424;2024-01-15T08:19:10;100230.16;;;0.35;100.00
71772;BME280;59606;52.138;5.424;2024-01-15T08:21:38;100238.75;;;0.34;100.00
71772;BME280;59606;52.138;5.424;2024-01-15T08:24:05;100249.84;;;0.34;100.00
71772;BME280;59606;52.138;5.424;2024-01-15T08:26:32;100244.66;;;0.36;100.00
71772;BME280;59606;52.138;5.424;2024-01-15T08:29:01;100249.75;;;0.37;100.00
71772;BME280;59606;52.138;5.424;2024-01-15T08:31:27;100255.69;;;0.39;100.00
71772;BME280;59606;52.138;5.424;2024-01-15T08:33:54;100264.19;;;0.40;100.00
71772;BME280;59606;52.138;5.424;2024-01-15T08:36:23;100254.78;;;0.42;100.00
71772;BME280;59606;52.138;5.424;2024-01-15T08:38:50;100247.97;;;0.41;100.00
71772;BME280;59606;52.138;5.424;2024-01-15T08:41:17;100242.00;;;0.40;100.00
71772;BME280;59606;52.138;5.424;2024-01-15T08:43:43;100243.72;;;0.40;100.00
71772;BME280;59606;52.138;5.424;2024-01-15T08:46:10;100244.56;;;0.40;100.00
71772;BME280;59606;52.138;5.424;2024-01-15T08:48:36;100243.69;;;0.41;100.00
71772;BME280;59606;52.138;5.424;2024-01-15T08:51:03;100237.69;;;0.42;100.00
71772;BME280;59606;52.138;5.424;2024-01-15T08:53:30;100246.13;;;0.46;100.00
71772;BME280;59606;52.138;5.424;2024-01-15T08:55:56;100244.34;;;0.50;100.00
71772;BME280;59606;52.138;5.424;2024-01-15T08:58:23;100246.06;;;0.51;100.00
71772;BME280;59606;52.138;5.424;2024-01-15T09:00:51;100251.06;;;0.54;100.00
71772;BME280;59606;52.138;5.424;2024-01-15T09:03:18;100253.63;;;0.55;100.00
71772;BME280;59606;52.138;5.424;2024-01-15T09:05:44;100252.72;;;0.58;100.00
71772;BME280;59606;52.138;5.424;2024-01-15T09:08:11;100253.47;;;0.61;100.00
71772;BME280;59606;52.138;5.424;2024-01-15T09:10:38;100265.28;;;0.68;100.00
71772;BME280;59606;52.138;5.424;2024-01-15T09:13:04;100268.66;;;0.70;100.00
71772;BME280;59606;52.138;5.424;2024-01-15T09:15:31;100277.19;;;0.71;100.00
71772;BME280;59606;52.138;5.424;2024-01-15T09:17:57;100260.97;;;0.69;100.00
71772;BME280;59606;52.138;5.424;2024-01-15T09:20:25;100253.34;;;0.67;100.00
71772;BME280;59606;52.138;5.424;2024-01-15T09:22:53;100251.63;;;0.68;100.00
71772;BME280;59606;52.138;5.424;2024-01-15T09:25:20;100249.06;;;0.68;100.00
71772;BME280;59606;52.138;5.424;2024-01-15T09:27:46;100253.41;;;0.64;100.00
71772;BME280;59606;52.138;5.424;2024-01-15T09:30:13;100250.00;;;0.64;100.00
71772;BME280;59606;52.138;5.424;2024-01-15T09:32:40;100256.88;;;0.62;100.00
71772;BME280;59606;52.138;5.424;2024-01-15T09:35:07;100255.22;;;0.59;100.00
71772;BME280;59606;52.138;5.424;2024-01-15T09:37:34;100254.34;;;0.60;100.00
71772;BME280;59606;52.138;5.424;2024-01-15T09:40:13;100250.78;;;0.66;100.00
71772;BME280;59606;52.138;5.424;2024-01-15T09:42:44;100250.59;;;0.74;100.00
71772;BME280;59606;52.138;5.424;2024-01-15T09:45:11;100246.91;;;0.85;100.00
71772;BME280;59606;52.138;5.424;2024-01-15T09:47:40;100252.75;;;0.92;100.00
71772;BME280;59606;52.138;5.424;2024-01-15T09:50:13;100257.75;;;0.97;100.00
71772;BME280;59606;52.138;5.424;2024-01-15T09:52:40;100243.38;;;0.91;100.00
71772;BME280;59606;52.138;5.424;2024-01-15T09:55:08;100252.00;;;0.87;100.00
71772;BME280;59606;52.138;5.424;2024-01-15T09:57:36;100250.31;;;0.86;100.00
71772;BME280;59606;52.138;5.424;2024-01-15T10:00:04;100252.03;;;0.85;100.00
71772;BME280;59606;52.138;5.424;2024-01-15T10:02:33;100254.63;;;0.85;100.00
71772;BME280;59606;52.138;5.424;2024-01-15T10:05:03;100269.09;;;0.88;100.00
71772;BME280;59606;52.138;5.424;2024-01-15T10:07:34;100267.97;;;0.98;100.00
71772;BME280;59606;52.138;5.424;2024-01-15T10:10:01;100271.78;;;1.16;100.00
71772;BME280;59606;52.138;5.424;2024-01-15T10:12:30;100272.25;;;1.32;100.00
71772;BME280;59606;52.138;5.424;2024-01-15T10:14:57;100263.72;;;1.31;100.00
71772;BME280;59606;52.138;5.424;2024-01-15T10:17:24;100255.38;;;1.23;100.00
71772;BME280;59606;52.138;5.424;2024-01-15T10:19:52;100257.09;;;1.23;100.00
71772;BME280;59606;52.138;5.424;2024-01-15T10:22:18;100258.59;;;1.31;100.00
71772;BME280;59606;52.138;5.424;2024-01-15T10:24:45;100275.38;;;1.43;100.00
71772;BME280;59606;52.138;5.424;2024-01-15T10:27:15;100273.56;;;1.47;100.00
71772;BME280;59606;52.138;5.424;2024-01-15T10:29:42;100276.28;;;1.40;100.00
71772;BME280;59606;52.138;5.424;2024-01-15T10:32:09;100269.72;;;1.30;100.00
71772;BME280;59606;52.138;5.424;2024-01-15T10:34:40;100272.53;;;1.21;100.00
71772;BME280;59606;52.138;5.424;2024-01-15T10:37:08;100272.72;;;1.13;100.00
71772;BME280;59606;52.138;5.424;2024-01-15T10:39:35;100266.88;;;1.07;100.00
71772;BME280;59606;52.138;5.424;2024-01-15T10:42:03;100269.47;;;1.07;100.00
71772;BME280;59606;52.138;5.424;2024-01-15T10:44:30;100266.06;;;1.06;100.00
71772;BME280;59606;52.138;5.424;2024-01-15T10:46:57;100268.47;;;1.12;100.00
71772;BME280;59606;52.138;5.424;2024-01-15T10:49:24;100268.19;;;1.23;100.00
71772;BME280;59606;52.138;5.424;2024-01-15T10:51:58;100265.59;;;1.25;100.00
71772;BME280;59606;52.138;5.424;2024-01-15T10:54:27;100258.75;;;1.25;100.00
71772;BME280;59606;52.138;5.424;2024-01-15T10:56:55;100278.16;;;1.35;100.00
71772;BME280;59606;52.138;5.424;2024-01-15T10:59:22;100277.19;;;1.39;100.00
71772;BME280;59606;52.138;5.424;2024-01-15T11:01:50;100287.38;;;1.42;100.00
71772;BME280;59606;52.138;5.424;2024-01-15T11:04:21;100291.53;;;1.47;100.00
71772;BME280;59606;52.138;5.424;2024-01-15T11:06:52;100288.00;;;1.51;100.00
71772;BME280;59606;52.138;5.424;2024-01-15T11:09:21;100295.69;;;1.51;100.00
71772;BME280;59606;52.138;5.424;2024-01-15T11:11:51;100295.00;;;1.46;100.00
71772;BME280;59606;52.138;5.424;2024-01-15T11:15:00;100298.53;;;1.41;100.00
71772;BME280;59606;52.138;5.424;2024-01-15T11:18:00;100310.53;;;1.39;100.00
71772;BME280;59606;52.138;5.424;2024-01-15T11:20:32;100296.06;;;1.37;100.00
71772;BME280;59606;52.138;5.424;2024-01-15T11:22:59;100302.09;;;1.36;100.00
71772;BME280;59606;52.138;5.424;2024-01-15T11:25:34;100306.38;;;1.35;100.00
71772;BME280;59606;52.138;5.424;2024-01-15T11:28:03;100305.53;;;1.35;100.00
71772;BME280;59606;52.138;5.424;2024-01-15T11:30:30;100300.28;;;1.39;100.00
71772;BME280;59606;52.138;5.424;2024-01-15T11:32:57;100299.28;;;1.45;100.00
71772;BME280;59606;52.138;5.424;2024-01-15T11:35:49;100287.91;;;1.55;100.00
71772;BME280;59606;52.138;5.424;2024-01-15T11:38:26;100290.00;;;1.72;100.00
71772;BME280;59606;52.138;5.424;2024-01-15T11:40:54;100295.13;;;1.72;100.00
71772;BME280;59606;52.138;5.424;2024-01-15T11:43:21;100290.94;;;1.70;100.00
71772;BME280;59606;52.138;5.424;2024-01-15T11:45:52;100292.56;;;1.72;100.00
71772;BME280;59606;52.138;5.424;2024-01-15T11:48:19;100296.59;;;1.81;100.00
71772;BME280;59606;52.138;5.424;2024-01-15T11:50:47;100306.09;;;1.79;100.00
71772;BME280;59606;52.138;5.424;2024-01-15T11:53:43;100307.09;;;1.73;100.00
71772;BME280;59606;52.138;5.424;2024-01-15T11:56:15;100313.88;;;1.76;100.00
71772;BME280;59606;52.138;5.424;2024-01-15T11:58:45;100301.78;;;1.79;100.00
71772;BME280;59606;52.138;5.424;2024-01-15T12:01:12;100300.91;;;1.80;100.00
71772;BME280;59606;52.138;5.424;2024-01-15T12:03:39;100300.72;;;1.86;100.00
71772;BME280;59606;52.138;5.424;2024-01-15T12:06:06;100302.25;;;1.94;100.00
71772;BME280;59606;52.138;5.424;2024-01-15T12:08:34;100309.63;;;2.04;100.00
71772;BME280;59606;52.138;5.424;2024-01-15T12:11:06;100325.19;;;2.00;100.00
71772;BME280;59606;52.138;5.424;2024-01-15T12:13:33;100329.66;;;1.93;100.00
71772;BME280;59606;52.138;5.424;2024-01-15T12:16:01;100330.66;;;1.87;100.00
71772;BME280;59606;52.138;5.424;2024-01-15T12:18:29;100337.66;;;1.82;100.00
71772;BME280;59606;52.138;5.424;2024-01-15T12:20:56;100342.88;;;1.79;100.00
71772;BME280;59606;52.138;5.424;2024-01-15T12:23:23;100347.28;;;1.74;100.00
71772;BME280;59606;52.138;5.424;2024-01-15T12:25:50;100352.53;;;1.71;100.00
71772;BME280;59606;52.138;5.424;2024-01-15T12:28:17;100350.81;;;1.70;100.00
71772;BME280;59606;52.138;5.424;2024-01-15T12:30:46;100343.25;;;1.65;100.00
71772;BME280;59606;52.138;5.424;2024-01-15T12:33:17;100342.28;;;1.70;100.00
71772;BME280;59606;52.138;5.424;2024-01-15T12:35:44;100357.59;;;1.73;100.00
71772;BME280;59606;52.138;5.424;2024-01-15T12:38:11;100365.38;;;1.71;100.00
71772;BME280;59606;52.138;5.424;2024-01-15T12:40:39;100363.72;;;1.67;100.00
71772;BME280;59606;52.138;5.424;2024-01-15T12:43:05;100364.63;;;1.66;100.00
71772;BME280;59606;52.138;5.424;2024-01-15T12:45:33;100354.56;;;1.58;100.00
71772;BME280;59606;52.138;5.424;2024-01-15T12:48:02;100361.66;;;1.49;100.00
71772;BME280;59606;52.138;5.424;2024-01-15T12:50:30;100345.50;;;1.44;100.00
71772;BME280;59606;52.138;5.424;2024-01-15T12:52:59;100361.03;;;1.39;100.00